Corning, CA

1:18 PM PDT en Octubre 01, 2014 (GMT -0700)
MOORE FARMS | Change Station
CLOSE
Current Station
Estación meteorológica personal
Location: Orland, CA
Altura: 200 ft
Estaciones meteorológicas cercanas

Alt 200 ft 39.78 °N, 122.10 °W | Updated 19 seconds ago

Despejado
Despejado
83.7 ° F
Sensación térmica 81 ° F
N
7.4
Viento Variable Viento desde NNO
Gusts 9.8 mph

Hoy
Alta -- | Baja -- ° F
--% Posibilidad de precipitaciones
Ayer
Alta -- | Baja -- ° F
Precip. -- pul
7:05 AM 6:50 PM
Creciente, 50% visible
Presión 29.92 pul
Visibilidad 10.0 Millas
Nubes Despejado
Índice de calor 81 ° F
Punto de rocío 37 ° F
Humedad 19%
Precipitaciones 0.00 pul
Espesor de la nieve 0 in , 0 in , 0 in
UV 7 de una escala de 12
Polen 5.90 de una escala de 12
Calidad del aire No disponible.
Flu Activity No disponible.
METAR KRBL 301954Z AUTO 32010G17KT 10SM CLR 27/11 A2993 RMK AO2 SLP132 T02670106

More Conditions Fewer Conditions

Presión 29.92 pul
Visibilidad 10.0 Millas
Nubes Despejado
Índice de calor 81 ° F
Punto de rocío 37 ° F
Humedad 19%
Precipitaciones 0.00 pul
Espesor de la nieve 0 in , 0 in , 0 in
UV 7 de una escala de 12
Polen 5.90 de una escala de 12
Calidad del aire No disponible.
Flu Activity No disponible.
METAR KRBL 301954Z AUTO 32010G17KT 10SM CLR 27/11 A2993 RMK AO2 SLP132 T02670106

More Conditions Fewer Conditions

10-Day Weather Forecast

Almanac

Astronomía

Oct. 01, 2014 Salida Puesta
Hora real 7:05 AM PDT 6:50 PM PDT
Crepúsculo civil 6:38 AM PDT 7:17 PM PDT
Crepúsculo náutico 6:06 AM PDT 7:49 PM PDT
Crepúsculo astronómico 5:35 AM PDT 8:20 PM PDT
Luna 2:10 PM PDT Sin puesta de luna
Horas de luz 12h 39m
Horas de luz
11h 45m
Tomorrow will be 2m 36s shorter.
Creciente, 50% of the Moon is Illuminated
Hoy
Creciente
Oct 8
Luna llena
Oct 15
Cuarto menguante
Oct 23
Nueva
Oct 30
Cuarto creciente

Extremos de hoy

Máximos del estado Bajos del estado

Community

WunderPhotos

Upload Photos

1,758,022 ¡fotos cargadas!

WunderBlogs® & News

By Dr. Jeff Masters
Director of Meteorology, Weather Underground
By Kari Strenfel
Meteorologist, Weather Underground
By Christopher C. Burt
Weather Historian, Weather Underground
October 1, 2014
October 1, 2014
October 1, 2014

Nearby

Grosos de nieve

Estación Profundido Altura
Leavitt Meadows 0 in 7200 ft
Summit Meadow 0 in 9122 ft
Blue Lakes 0 in 8000 ft
Tahoe City Cross 0 in 6750 ft
Rubicon #2 1 in 7500 ft

Actividad de terremotos

Ciudad Distance Mag. Tiempo y dato
American Canyon, California 120 Millas 2.5 12:17 AM PDT
2014-09-29
Magnitud mínima muestra es 2,5.

Temperaturas de aguas costeras

Lugar Temperatura
Sin partes meteorológicos de las estaciones

Estaciones meteorológicas cercanas